createdAt,value
2023-05-14T00:00:26.973Z,5.05
2023-05-14T00:02:53.654Z,5.82
2023-05-14T00:05:20.187Z,4.43
2023-05-14T00:07:46.520Z,6.40
2023-05-14T00:10:12.883Z,4.70
2023-05-14T00:12:39.204Z,5.93
2023-05-14T00:15:06.216Z,7.07
2023-05-14T00:17:32.719Z,6.38
2023-05-14T00:19:59.456Z,8.20
2023-05-14T00:22:25.785Z,5.30
2023-05-14T00:24:52.121Z,5.05
2023-05-14T00:27:18.485Z,5.72
2023-05-14T00:29:45.739Z,6.55
2023-05-14T00:32:12.099Z,7.13
2023-05-14T00:34:38.516Z,6.68
2023-05-14T00:37:05.072Z,6.57
2023-05-14T00:39:31.436Z,6.60
2023-05-14T00:41:57.922Z,6.20
2023-05-14T00:44:24.253Z,4.53
2023-05-14T00:46:50.822Z,7.95
2023-05-14T00:49:17.970Z,5.95
2023-05-14T00:51:46.925Z,5.00
2023-05-14T00:54:17.379Z,6.40
2023-05-14T00:56:46.311Z,6.38
2023-05-14T00:59:13.736Z,8.25
2023-05-14T01:01:40.359Z,8.05
2023-05-14T01:04:07.687Z,5.05
2023-05-14T01:06:55.442Z,5.70
2023-05-14T01:09:27.031Z,4.30
2023-05-14T01:12:19.810Z,9.60
2023-05-14T01:14:56.800Z,8.75
2023-05-14T01:17:28.430Z,6.10
2023-05-14T01:19:56.484Z,7.43
2023-05-14T01:22:22.789Z,7.45
2023-05-14T01:24:49.168Z,7.65
2023-05-14T01:27:56.543Z,8.88
2023-05-14T01:32:53.667Z,6.50
2023-05-14T01:35:25.204Z,7.57
2023-05-14T01:37:53.410Z,6.93
2023-05-14T01:40:19.914Z,8.15
2023-05-14T01:42:46.948Z,7.78
2023-05-14T01:45:13.277Z,7.93
2023-05-14T01:47:39.662Z,6.25
2023-05-14T01:50:06.613Z,5.88
2023-05-14T01:52:32.941Z,4.60
2023-05-14T01:54:59.954Z,5.85
2023-05-14T01:57:26.389Z,8.80
2023-05-14T01:59:52.711Z,6.35
2023-05-14T02:02:19.115Z,7.82
2023-05-14T02:04:45.568Z,6.93
2023-05-14T02:07:11.920Z,8.05
2023-05-14T02:09:38.512Z,4.85
2023-05-14T02:12:05.201Z,7.05
2023-05-14T02:14:31.615Z,6.72
2023-05-14T02:16:57.976Z,7.10
2023-05-14T02:19:24.454Z,5.40
2023-05-14T02:21:50.856Z,8.05
2023-05-14T02:24:17.202Z,7.47
2023-05-14T02:26:43.533Z,8.15
2023-05-14T02:29:09.916Z,5.20
2023-05-14T02:31:36.315Z,8.82
2023-05-14T02:34:03.904Z,8.45
2023-05-14T02:36:30.739Z,10.32
2023-05-14T02:38:59.129Z,10.98
2023-05-14T02:41:25.441Z,12.00
2023-05-14T02:43:52.740Z,9.73
2023-05-14T02:46:19.213Z,14.38
2023-05-14T02:48:45.792Z,10.13
2023-05-14T02:51:12.357Z,9.90
2023-05-14T02:53:38.696Z,10.73
2023-05-14T02:56:05.167Z,12.40
2023-05-14T02:58:32.644Z,10.50
2023-05-14T03:00:59.002Z,8.68
2023-05-14T03:03:25.747Z,12.63
2023-05-14T03:05:52.609Z,10.73
2023-05-14T03:08:18.940Z,10.18
2023-05-14T03:10:45.890Z,10.10
2023-05-14T03:13:12.386Z,10.38
2023-05-14T03:15:38.758Z,9.32
2023-05-14T03:18:05.225Z,8.57
2023-05-14T03:20:31.575Z,10.40
2023-05-14T03:22:58.104Z,10.68
2023-05-14T03:25:24.461Z,11.95
2023-05-14T03:27:50.907Z,9.88
2023-05-14T03:30:17.445Z,9.38
2023-05-14T03:32:44.520Z,9.13
2023-05-14T03:35:10.927Z,10.40
2023-05-14T03:37:37.321Z,11.07
2023-05-14T03:40:04.140Z,9.07
2023-05-14T03:42:30.484Z,10.52
2023-05-14T03:44:56.828Z,10.02
2023-05-14T03:47:23.250Z,10.45
2023-05-14T03:49:50.001Z,13.75
2023-05-14T03:52:16.467Z,9.18
2023-05-14T03:54:42.828Z,9.35
2023-05-14T03:57:09.205Z,12.73
2023-05-14T03:59:35.587Z,10.27
2023-05-14T04:02:02.138Z,8.93
2023-05-14T04:04:28.552Z,8.85
2023-05-14T04:06:54.958Z,11.45
2023-05-14T04:09:21.430Z,11.18
2023-05-14T04:11:47.744Z,10.15
2023-05-14T04:14:14.115Z,10.23
2023-05-14T04:16:40.613Z,8.82
2023-05-14T04:19:07.245Z,7.53
2023-05-14T04:21:33.648Z,10.50
2023-05-14T04:24:00.106Z,8.88
2023-05-14T04:26:26.634Z,8.85
2023-05-14T04:28:53.036Z,6.93
2023-05-14T04:31:19.561Z,9.20
2023-05-14T04:33:45.993Z,10.18
2023-05-14T04:36:12.385Z,9.63
2023-05-14T04:38:38.701Z,8.15
2023-05-14T04:41:06.024Z,11.18
2023-05-14T04:43:32.381Z,9.10
2023-05-14T04:45:58.719Z,8.00
2023-05-14T04:48:25.096Z,10.88
2023-05-14T04:50:52.046Z,8.32
2023-05-14T04:53:18.375Z,10.63
2023-05-14T04:55:44.724Z,8.88
2023-05-14T04:58:11.103Z,13.35
2023-05-14T05:00:37.492Z,11.43
2023-05-14T05:03:04.266Z,11.95
2023-05-14T05:05:30.720Z,11.48
2023-05-14T05:07:57.037Z,9.93
2023-05-14T05:10:24.557Z,11.35
2023-05-14T05:12:51.082Z,9.98
2023-05-14T05:15:17.467Z,11.20
2023-05-14T05:17:43.964Z,10.70
2023-05-14T05:20:10.825Z,11.40
2023-05-14T05:22:37.316Z,11.80
2023-05-14T05:25:08.056Z,10.90
2023-05-14T05:27:34.734Z,11.52
2023-05-14T05:30:02.113Z,9.05
2023-05-14T05:32:28.636Z,10.13
2023-05-14T05:34:54.985Z,8.45
2023-05-14T05:37:21.342Z,11.43
2023-05-14T05:39:48.290Z,10.82
2023-05-14T05:42:14.755Z,9.25
2023-05-14T05:44:41.404Z,12.02
2023-05-14T05:47:07.728Z,10.80
2023-05-14T05:49:34.141Z,16.25
2023-05-14T05:52:00.579Z,9.98
2023-05-14T05:54:27.135Z,13.13
2023-05-14T05:56:53.498Z,10.70
2023-05-14T05:59:19.815Z,15.32
2023-05-14T06:01:46.141Z,8.45
2023-05-14T06:04:12.492Z,9.75
2023-05-14T06:06:38.839Z,9.38
2023-05-14T06:09:06.776Z,10.90
2023-05-14T06:11:33.139Z,9.88
2023-05-14T06:13:59.497Z,6.47
2023-05-14T06:16:26.293Z,5.45
2023-05-14T06:18:53.161Z,5.82
2023-05-14T06:21:19.715Z,4.53
2023-05-14T06:23:46.505Z,4.75
2023-05-14T06:26:13.056Z,5.43
2023-05-14T06:28:39.441Z,4.10
2023-05-14T06:31:05.804Z,4.95
2023-05-14T06:33:32.285Z,3.83
2023-05-14T06:35:59.568Z,4.13
2023-05-14T06:38:25.924Z,5.00
2023-05-14T06:40:53.161Z,3.70
2023-05-14T06:43:19.509Z,3.75
2023-05-14T06:45:48.881Z,3.80
2023-05-14T06:48:15.787Z,3.30
2023-05-14T06:50:42.156Z,3.92
2023-05-14T06:53:08.460Z,4.30
2023-05-14T06:55:34.949Z,3.20
2023-05-14T06:58:01.575Z,3.33
2023-05-14T07:00:28.471Z,2.80
2023-05-14T07:02:54.843Z,3.33
2023-05-14T07:05:21.357Z,3.17
2023-05-14T07:07:47.753Z,3.13
2023-05-14T07:10:14.113Z,3.45
2023-05-14T07:12:40.483Z,2.85
2023-05-14T07:15:07.737Z,2.75
2023-05-14T07:17:34.158Z,3.50
2023-05-14T07:20:00.597Z,2.30
2023-05-14T07:22:27.053Z,3.15
2023-05-14T07:24:53.430Z,3.15
2023-05-14T07:27:19.808Z,3.72
2023-05-14T07:29:46.152Z,3.30
2023-05-14T07:32:15.307Z,2.35
2023-05-14T07:34:42.195Z,2.33
2023-05-14T07:37:08.854Z,3.78
2023-05-14T07:39:35.189Z,2.15
2023-05-14T07:42:01.772Z,19.35
2023-05-14T07:44:28.156Z,2.47
2023-05-14T07:46:54.569Z,2.30
2023-05-14T07:49:20.992Z,2.38
2023-05-14T07:51:47.478Z,4.07
2023-05-14T07:54:13.948Z,2.10
2023-05-14T07:56:40.351Z,4.57
2023-05-14T07:59:07.253Z,2.40
2023-05-14T08:01:33.684Z,3.00
2023-05-14T08:04:00.304Z,2.03
2023-05-14T08:06:27.582Z,2.55
2023-05-14T08:08:54.112Z,2.35
2023-05-14T08:11:21.396Z,2.85
2023-05-14T08:13:47.897Z,1.83
2023-05-14T08:16:14.281Z,1.98
2023-05-14T08:18:41.039Z,2.75
2023-05-14T08:21:07.391Z,2.72
2023-05-14T08:23:33.810Z,2.08
2023-05-14T08:26:00.335Z,1.70
2023-05-14T08:28:26.792Z,3.05
2023-05-14T08:30:53.285Z,2.05
2023-05-14T08:33:19.672Z,3.22
2023-05-14T08:35:46.000Z,2.08
2023-05-14T08:38:12.369Z,2.00
2023-05-14T08:40:40.075Z,3.25
2023-05-14T08:43:07.916Z,1.98
2023-05-14T08:45:35.287Z,4.80
2023-05-14T08:48:08.871Z,3.80
2023-05-14T08:50:36.086Z,1.95
2023-05-14T08:53:02.492Z,2.42
2023-05-14T08:55:29.896Z,2.25
2023-05-14T08:57:56.576Z,2.60
2023-05-14T09:00:23.593Z,2.08
2023-05-14T09:02:51.042Z,1.73
2023-05-14T09:05:18.960Z,1.83
2023-05-14T09:07:45.399Z,3.85
2023-05-14T09:10:13.072Z,2.97
2023-05-14T09:12:39.451Z,2.40
2023-05-14T09:15:06.614Z,2.42
2023-05-14T09:17:33.641Z,1.95
2023-05-14T09:20:00.287Z,2.10
2023-05-14T09:22:30.059Z,1.70
2023-05-14T09:25:11.838Z,2.13
2023-05-14T09:27:38.773Z,1.90
2023-05-14T09:30:10.092Z,2.55
2023-05-14T09:32:38.470Z,1.92
2023-05-14T09:35:17.157Z,2.55
2023-05-14T09:37:46.256Z,2.70
2023-05-14T09:40:13.794Z,2.38
2023-05-14T09:42:40.829Z,1.83
2023-05-14T09:45:08.777Z,3.05
2023-05-14T09:47:36.281Z,2.13
2023-05-14T09:50:03.910Z,2.15
2023-05-14T09:52:30.915Z,2.25
2023-05-14T09:54:57.420Z,3.22
2023-05-14T09:57:24.092Z,2.42
2023-05-14T09:59:50.580Z,1.80
2023-05-14T10:02:26.292Z,3.92
2023-05-14T10:07:29.054Z,1.98
2023-05-14T10:10:01.686Z,2.77
2023-05-14T10:12:32.383Z,3.17
2023-05-14T10:15:03.617Z,2.05
2023-05-14T10:17:33.785Z,2.97
2023-05-14T10:20:02.570Z,2.33
2023-05-14T10:22:33.597Z,2.42
2023-05-14T10:25:00.627Z,1.70
2023-05-14T10:27:27.326Z,2.15
2023-05-14T10:29:55.773Z,1.70
2023-05-14T10:32:25.065Z,2.03
2023-05-14T10:34:53.339Z,2.58
2023-05-14T10:37:26.315Z,1.70
2023-05-14T10:40:02.073Z,2.10
2023-05-14T10:42:40.502Z,1.80
2023-05-14T10:45:08.752Z,3.15
2023-05-14T10:47:36.959Z,2.30
2023-05-14T10:50:06.142Z,1.85
2023-05-14T10:52:34.965Z,2.35
2023-05-14T10:55:11.441Z,2.20
2023-05-14T10:57:40.230Z,23.55
2023-05-14T11:00:09.158Z,6.65
2023-05-14T11:05:18.193Z,2.75
2023-05-14T11:10:30.070Z,2.78
2023-05-14T11:12:59.153Z,1.73
2023-05-14T11:15:28.241Z,2.60
2023-05-14T11:17:54.714Z,3.03
2023-05-14T11:20:21.418Z,1.52
2023-05-14T11:22:49.234Z,2.72
2023-05-14T11:25:15.842Z,1.70
2023-05-14T11:27:46.916Z,1.58
2023-05-14T11:30:14.330Z,1.85
2023-05-14T11:32:41.287Z,1.45
2023-05-14T11:35:08.292Z,1.60
2023-05-14T11:37:34.672Z,2.97
2023-05-14T11:40:01.708Z,2.97
2023-05-14T11:42:28.159Z,1.80
2023-05-14T11:44:54.489Z,2.28
2023-05-14T11:47:22.075Z,1.92
2023-05-14T11:49:49.546Z,2.17
2023-05-14T11:52:19.174Z,1.60
2023-05-14T11:54:45.928Z,1.90
2023-05-14T11:57:22.371Z,1.98
2023-05-14T11:59:49.782Z,1.65
2023-05-14T12:02:19.523Z,1.88
2023-05-14T12:04:51.841Z,5.72
2023-05-14T12:07:18.296Z,1.60
2023-05-14T12:09:49.694Z,1.80
2023-05-14T12:12:23.017Z,1.98
2023-05-14T12:14:50.412Z,2.15
2023-05-14T12:17:18.213Z,4.25
2023-05-14T12:19:47.360Z,2.35
2023-05-14T12:22:15.664Z,3.20
2023-05-14T12:24:43.907Z,2.28
2023-05-14T12:27:10.723Z,1.40
2023-05-14T12:29:41.352Z,1.60
2023-05-14T12:32:09.466Z,2.30
2023-05-14T12:34:37.638Z,2.20
2023-05-14T12:37:04.973Z,2.17
2023-05-14T12:39:33.670Z,2.25
2023-05-14T12:42:00.418Z,1.92
2023-05-14T12:44:26.857Z,2.33
2023-05-14T12:46:53.327Z,2.83
2023-05-14T12:49:20.281Z,2.92
2023-05-14T12:51:47.093Z,2.85
2023-05-14T12:54:15.747Z,1.70
2023-05-14T12:56:42.461Z,1.88
2023-05-14T12:59:09.463Z,4.20
2023-05-14T13:01:36.676Z,2.30
2023-05-14T13:04:03.277Z,2.22
2023-05-14T13:06:29.678Z,1.95
2023-05-14T13:08:56.659Z,1.27
2023-05-14T13:11:22.992Z,1.77
2023-05-14T13:13:49.479Z,2.58
2023-05-14T13:16:16.850Z,1.65
2023-05-14T13:18:43.400Z,1.20
2023-05-14T13:21:09.810Z,2.78
2023-05-14T13:23:36.142Z,1.40
2023-05-14T13:26:02.467Z,1.67
2023-05-14T13:28:28.842Z,2.45
2023-05-14T13:31:04.675Z,1.58
2023-05-14T13:40:49.865Z,4.32
2023-05-14T13:43:16.843Z,5.55
2023-05-14T13:45:43.212Z,3.25
2023-05-14T13:48:09.611Z,2.75
2023-05-14T13:50:35.942Z,2.95
2023-05-14T13:53:02.288Z,1.85
2023-05-14T13:55:28.627Z,3.35
2023-05-14T13:57:55.222Z,2.22
2023-05-14T14:00:21.839Z,5.00
2023-05-14T14:02:48.210Z,3.67
2023-05-14T14:05:14.857Z,2.70
2023-05-14T14:07:41.721Z,1.73
2023-05-14T14:10:08.883Z,1.80
2023-05-14T14:12:35.381Z,2.00
2023-05-14T14:15:02.798Z,1.85
2023-05-14T14:17:29.182Z,2.35
2023-05-14T14:19:55.554Z,3.15
2023-05-14T14:22:22.474Z,2.13
2023-05-14T14:24:49.500Z,1.80
2023-05-14T14:27:15.889Z,2.67
2023-05-14T14:29:42.327Z,1.98
2023-05-14T14:32:08.813Z,2.00
2023-05-14T14:34:35.385Z,2.67
2023-05-14T14:37:01.699Z,2.38
2023-05-14T14:39:28.197Z,2.20
2023-05-14T14:41:54.944Z,3.60
2023-05-14T14:44:21.289Z,2.60
2023-05-14T14:46:47.593Z,2.13
2023-05-14T14:49:13.923Z,2.72
2023-05-14T14:51:40.739Z,2.38
2023-05-14T14:54:07.154Z,3.03
2023-05-14T14:56:33.775Z,2.30
2023-05-14T14:59:01.369Z,2.15
2023-05-14T15:01:27.939Z,2.22
2023-05-14T15:03:54.355Z,2.42
2023-05-14T15:06:20.754Z,2.28
2023-05-14T15:08:47.192Z,1.67
2023-05-14T15:11:14.337Z,2.53
2023-05-14T15:13:41.821Z,2.67
2023-05-14T15:16:08.286Z,2.78
2023-05-14T15:18:34.714Z,2.63
2023-05-14T15:21:01.088Z,1.73
2023-05-14T15:23:27.431Z,1.73
2023-05-14T15:25:53.913Z,1.90
2023-05-14T15:28:20.440Z,2.65
2023-05-14T15:30:49.997Z,2.65
2023-05-14T15:33:19.651Z,2.47
2023-05-14T15:35:46.101Z,2.13
2023-05-14T15:38:12.449Z,2.90
2023-05-14T15:40:38.838Z,1.95
2023-05-14T15:43:05.318Z,1.85
2023-05-14T15:45:31.714Z,1.55
2023-05-14T15:47:58.161Z,1.50
2023-05-14T15:50:25.805Z,2.20
2023-05-14T15:52:52.422Z,2.67
2023-05-14T15:55:19.040Z,1.90
2023-05-14T15:57:45.447Z,1.58
2023-05-14T16:00:12.302Z,2.13
2023-05-14T16:02:39.728Z,2.55
2023-05-14T16:05:08.146Z,2.53
2023-05-14T16:07:34.574Z,2.25
2023-05-14T16:10:01.044Z,1.90
2023-05-14T16:12:27.404Z,2.03
2023-05-14T16:14:53.891Z,3.03
2023-05-14T16:17:20.405Z,1.42
2023-05-14T16:19:46.754Z,1.52
2023-05-14T16:22:13.075Z,2.13
2023-05-14T16:24:39.453Z,1.63
2023-05-14T16:27:06.134Z,1.50
2023-05-14T16:29:32.528Z,2.13
2023-05-14T16:31:59.124Z,1.55
2023-05-14T16:34:25.518Z,1.60
2023-05-14T16:36:51.872Z,1.60
2023-05-14T16:39:18.214Z,2.65
2023-05-14T16:41:44.568Z,2.47
2023-05-14T16:44:10.904Z,1.40
2023-05-14T16:46:37.404Z,1.98
2023-05-14T16:49:03.835Z,1.75
2023-05-14T16:51:30.207Z,2.20
2023-05-14T16:53:56.568Z,4.03
2023-05-14T16:56:23.051Z,4.05
2023-05-14T16:58:49.522Z,2.15
2023-05-14T17:01:16.002Z,1.92
2023-05-14T17:03:43.357Z,3.03
2023-05-14T17:06:10.056Z,1.40
2023-05-14T17:08:36.554Z,1.70
2023-05-14T17:11:05.557Z,5.70
2023-05-14T17:13:32.985Z,1.50
2023-05-14T17:16:00.583Z,3.08
2023-05-14T17:18:27.153Z,1.70
2023-05-14T17:20:53.552Z,2.58
2023-05-14T17:23:20.357Z,2.15
2023-05-14T17:25:46.780Z,1.55
2023-05-14T17:28:13.115Z,2.15
2023-05-14T17:30:39.561Z,3.55
2023-05-14T17:33:06.188Z,1.67
2023-05-14T17:35:35.985Z,1.50
2023-05-14T17:38:03.141Z,1.50
2023-05-14T17:40:29.638Z,2.17
2023-05-14T17:42:55.958Z,1.55
2023-05-14T17:45:22.435Z,2.10
2023-05-14T17:47:49.670Z,1.42
2023-05-14T17:50:16.305Z,5.80
2023-05-14T17:52:44.109Z,2.72
2023-05-14T17:55:11.112Z,2.28
2023-05-14T17:57:37.636Z,10.35
2023-05-14T18:00:07.449Z,3.90
2023-05-14T18:02:33.893Z,2.08
2023-05-14T18:05:00.376Z,2.10
2023-05-14T18:07:27.386Z,3.92
2023-05-14T18:09:53.726Z,1.70
2023-05-14T18:12:20.241Z,1.90
2023-05-14T18:14:46.574Z,1.60
2023-05-14T18:17:12.989Z,2.70
2023-05-14T18:19:40.930Z,2.75
2023-05-14T18:22:07.341Z,1.77
2023-05-14T18:24:33.725Z,3.33
2023-05-14T18:27:00.447Z,3.47
2023-05-14T18:29:26.845Z,2.15
2023-05-14T18:31:53.293Z,2.72
2023-05-14T18:34:19.670Z,2.95
2023-05-14T18:36:50.000Z,2.25
2023-05-14T18:39:16.308Z,2.13
2023-05-14T18:41:42.668Z,2.08
2023-05-14T18:44:08.995Z,2.10
2023-05-14T18:46:35.570Z,2.10
2023-05-14T18:49:02.021Z,3.30
2023-05-14T18:51:29.432Z,2.00
2023-05-14T18:53:56.901Z,2.88
2023-05-14T18:56:23.258Z,2.67
2023-05-14T18:58:49.608Z,2.55
2023-05-14T19:01:15.990Z,3.05
2023-05-14T19:03:42.481Z,2.22
2023-05-14T19:06:09.100Z,2.75
2023-05-14T19:08:35.853Z,2.22
2023-05-14T19:11:02.790Z,2.42
2023-05-14T19:13:30.105Z,3.17
2023-05-14T19:15:56.581Z,3.47
2023-05-14T19:18:22.987Z,2.75
2023-05-14T19:20:49.380Z,3.00
2023-05-14T19:23:15.797Z,2.33
2023-05-14T19:25:42.162Z,3.13
2023-05-14T19:28:08.578Z,2.00
2023-05-14T19:30:34.967Z,2.33
2023-05-14T19:33:01.376Z,2.17
2023-05-14T19:35:27.804Z,2.53
2023-05-14T19:37:54.317Z,3.80
2023-05-14T19:40:20.636Z,3.15
2023-05-14T19:42:46.968Z,3.13
2023-05-14T19:45:13.716Z,2.83
2023-05-14T19:47:40.239Z,4.53
2023-05-14T19:50:08.310Z,2.72
2023-05-14T19:52:34.677Z,2.85
2023-05-14T19:55:00.998Z,2.20
2023-05-14T19:57:27.361Z,2.20
2023-05-14T20:00:12.889Z,3.00
2023-05-14T20:02:40.725Z,2.50
2023-05-14T20:05:11.457Z,3.92
2023-05-14T20:07:40.167Z,7.00
2023-05-14T20:10:07.429Z,2.60
2023-05-14T20:12:33.780Z,4.07
2023-05-14T20:15:00.186Z,4.57
2023-05-14T20:17:26.719Z,3.60
2023-05-14T20:19:53.077Z,3.55
2023-05-14T20:22:19.412Z,4.93
2023-05-14T20:24:45.866Z,3.13
2023-05-14T20:27:12.366Z,3.05
2023-05-14T20:29:38.691Z,5.35
2023-05-14T20:32:05.689Z,3.42
2023-05-14T20:34:32.025Z,4.20
2023-05-14T20:36:58.467Z,6.72
2023-05-14T20:39:24.828Z,5.82
2023-05-14T20:41:51.205Z,2.88
2023-05-14T20:44:18.426Z,5.60
2023-05-14T20:46:46.960Z,4.03
2023-05-14T20:49:13.426Z,3.60
2023-05-14T20:51:39.754Z,3.83
2023-05-14T20:54:06.135Z,3.45
2023-05-14T20:56:32.628Z,3.45
2023-05-14T20:58:58.962Z,3.92
2023-05-14T21:01:25.540Z,4.40
2023-05-14T21:03:52.152Z,4.63
2023-05-14T21:06:18.650Z,5.05
2023-05-14T21:08:45.027Z,5.55
2023-05-14T21:11:11.445Z,3.63
2023-05-14T21:13:37.799Z,4.13
2023-05-14T21:16:04.361Z,7.43
2023-05-14T21:18:32.746Z,7.20
2023-05-14T21:20:59.226Z,4.07
2023-05-14T21:23:25.698Z,4.32
2023-05-14T21:25:54.644Z,3.28
2023-05-14T21:28:22.111Z,7.78
2023-05-14T21:30:52.845Z,4.97
2023-05-14T21:33:19.320Z,5.63
2023-05-14T21:35:45.671Z,5.95
2023-05-14T21:38:12.295Z,4.82
2023-05-14T21:40:38.657Z,5.18
2023-05-14T21:43:05.012Z,4.40
2023-05-14T21:45:31.504Z,6.20
2023-05-14T21:47:58.014Z,4.30
2023-05-14T21:50:24.462Z,4.00
2023-05-14T21:52:51.195Z,3.65
2023-05-14T21:55:17.644Z,5.30
2023-05-14T21:57:44.011Z,2.80
2023-05-14T22:00:13.000Z,4.05
2023-05-14T22:02:39.611Z,4.97
2023-05-14T22:05:06.371Z,2.83
2023-05-14T22:07:32.853Z,4.47
2023-05-14T22:09:59.190Z,3.03
2023-05-14T22:12:26.174Z,5.00
2023-05-14T22:14:52.711Z,3.20
2023-05-14T22:17:19.057Z,3.20
2023-05-14T22:19:45.499Z,3.67
2023-05-14T22:22:11.808Z,4.70
2023-05-14T22:24:38.153Z,3.97
2023-05-14T22:27:04.650Z,3.28
2023-05-14T22:29:31.011Z,3.35
2023-05-14T22:31:57.550Z,4.57
2023-05-14T22:34:24.144Z,4.05
2023-05-14T22:36:50.515Z,3.63
2023-05-14T22:39:16.909Z,4.20
2023-05-14T22:41:43.243Z,4.45
2023-05-14T22:44:09.622Z,5.72
2023-05-14T22:46:36.061Z,4.40
2023-05-14T22:49:03.062Z,5.40
2023-05-14T22:51:29.469Z,4.65
2023-05-14T22:53:55.874Z,7.38
2023-05-14T22:56:22.286Z,7.07
2023-05-14T22:58:48.665Z,5.45
2023-05-14T23:01:15.155Z,4.72
2023-05-14T23:03:41.589Z,3.70
2023-05-14T23:06:07.999Z,4.13
2023-05-14T23:08:34.329Z,5.65
2023-05-14T23:11:00.726Z,6.82
2023-05-14T23:13:27.038Z,5.38
2023-05-14T23:15:53.383Z,5.28
2023-05-14T23:18:19.827Z,4.82
2023-05-14T23:20:46.262Z,4.22
2023-05-14T23:23:12.623Z,4.78
2023-05-14T23:25:39.196Z,5.50
2023-05-14T23:28:05.939Z,4.82
2023-05-14T23:30:32.618Z,4.63
2023-05-14T23:32:59.031Z,5.05
2023-05-14T23:35:25.765Z,4.50
2023-05-14T23:37:52.532Z,7.82
2023-05-14T23:40:18.961Z,4.97
2023-05-14T23:42:45.731Z,5.82
2023-05-14T23:45:13.420Z,4.88
2023-05-14T23:47:40.983Z,10.07
2023-05-14T23:50:07.794Z,5.93
2023-05-14T23:52:34.300Z,4.97
2023-05-14T23:55:00.630Z,5.85
2023-05-14T23:57:27.203Z,4.07
2023-05-14T23:59:53.532Z,5.88
